15:41
Airports
History
Links
Donate
Help keep this website running!
PayPal
Bitcoin
This page is community maintained. The information is intended for PC simulator navigation or reference.
Always use approved charts for navigation.
KUIZ
Berz-Macomb
Berz-Macomb (KUIZ)
Macomb, Michigan, United States (48044)
(U)
Lat/Lng:42° 39' 50.06" N / 82° 57' 55.5" W
42.663906 / -82.965416
Elevation:610'ft / 186mMSL
ID / ICAO:KUIZ
Runways:1
Longest:04-22
Asphalt 1,271m / 4,171ft
Nearby Weather14:56 GMT 2018-01-18
Nearby weather at KMTC, Selfridge Angb located 7.6 nautical miles from KUIZ
Altimeter: 30.03
Visibility: 10.0 statute miles
Wind: 10 knots (from 220°)
Temp: -7°c / 19°f
Humidity: 62.1%

METAR: KMTC 181456Z 22010KT 10SM OVC017 M07/M13 A3003 RMK AO2A SLP187 WND DATA ESTMD ALSTG/SLP ESTMD T10721129 $

(Powered by phpweather)
Nearby VORs <50NM
Nearby NDBs
Runway 04 / 22
Dimensions:1271.4 x 18.3m 4171' x 60'ft
Surface:Asphalt
Edge Lights:Low intensity
Runway 04 [A]Runway 22 [B]
Heading:037°TH 217°TH
Lat:
Lng:
42° 39' 33.63"N
82° 58' 12.58"W
42° 40' 6.49"N
82° 57' 38.42"W
ALS:RAIL
User Notes and Comments
42° 39' 50.06" N / 82° 57' 55.5" W
Distance To
Airport ID:
Nearby Airports
(U) Ray Community 6.4 NM
57D NE 37°
(R) Dodge 7.6 NM
MI50 N
(R) Selfridge Angb 7.6 NM
KMTC ( WX ) ESE 120°
(U) Romeo State 9.2 NM
D98 N 357°
(U) Big Beaver 10.4 NM
3BB SW 226°
(R) Kriewall Strip 12.0 NM
4MI0 N 359°
(U) Oakland/troy 13.7 NM
KVLL SW 232°
VFR Chart
Flight Planning at SkyVector.com